createdAt,value
2022-10-20T00:01:17.906Z,9.70
2022-10-20T00:03:45.727Z,9.60
2022-10-20T00:06:18.138Z,9.40
2022-10-20T00:08:46.115Z,9.50
2022-10-20T00:11:15.409Z,9.60
2022-10-20T00:13:43.505Z,9.60
2022-10-20T00:16:10.592Z,9.50
2022-10-20T00:18:37.727Z,9.40
2022-10-20T00:21:09.612Z,9.30
2022-10-20T00:23:36.886Z,9.30
2022-10-20T00:26:10.543Z,9.50
2022-10-20T00:28:37.451Z,9.70
2022-10-20T00:31:05.376Z,9.60
2022-10-20T00:33:33.020Z,9.60
2022-10-20T00:36:04.567Z,9.70
2022-10-20T00:38:31.814Z,9.60
2022-10-20T00:41:03.352Z,9.50
2022-10-20T00:43:45.767Z,9.70
2022-10-20T00:46:16.088Z,9.70
2022-10-20T00:48:46.784Z,9.80
2022-10-20T00:51:16.723Z,9.80
2022-10-20T00:53:45.399Z,9.80
2022-10-20T00:56:12.882Z,9.70
2022-10-20T00:58:39.883Z,9.60
2022-10-20T01:01:07.035Z,9.70
2022-10-20T01:03:45.564Z,9.80
2022-10-20T01:06:14.872Z,9.90
2022-10-20T01:08:41.757Z,9.70
2022-10-20T01:11:42.375Z,9.60
2022-10-20T01:14:31.027Z,9.50
2022-10-20T01:17:29.025Z,9.50
2022-10-20T01:20:18.431Z,9.50
2022-10-20T01:23:06.944Z,9.70
2022-10-20T01:25:55.678Z,9.70
2022-10-20T01:28:34.524Z,9.80
2022-10-20T01:31:07.861Z,10.00
2022-10-20T01:33:52.281Z,9.90
2022-10-20T01:36:37.473Z,10.00
2022-10-20T01:39:16.380Z,10.20
2022-10-20T01:41:53.423Z,10.10
2022-10-20T01:44:23.832Z,10.10
2022-10-20T01:46:52.820Z,10.00
2022-10-20T01:49:19.901Z,9.90
2022-10-20T01:51:46.699Z,9.90
2022-10-20T01:54:40.119Z,9.60
2022-10-20T01:57:33.085Z,9.60
2022-10-20T02:00:12.770Z,9.60
2022-10-20T02:02:39.651Z,9.50
2022-10-20T02:05:44.370Z,9.50
2022-10-20T02:08:13.551Z,9.50
2022-10-20T02:10:46.014Z,9.50
2022-10-20T02:13:14.314Z,9.60
2022-10-20T02:15:46.381Z,9.60
2022-10-20T02:18:18.341Z,9.50
2022-10-20T02:20:48.999Z,9.50
2022-10-20T02:23:16.109Z,9.70
2022-10-20T02:25:43.144Z,9.70
2022-10-20T02:28:13.953Z,9.40
2022-10-20T02:30:41.865Z,9.30
2022-10-20T02:33:09.234Z,9.50
2022-10-20T02:35:36.311Z,9.60
2022-10-20T02:38:03.684Z,9.70
2022-10-20T02:40:30.976Z,9.70
2022-10-20T02:42:57.861Z,9.40
2022-10-20T02:45:24.707Z,9.30
2022-10-20T02:47:51.546Z,9.20
2022-10-20T02:50:18.487Z,9.30
2022-10-20T02:52:45.324Z,9.20
2022-10-20T02:55:12.237Z,9.30
2022-10-20T02:57:39.246Z,9.30
2022-10-20T03:00:07.750Z,9.40
2022-10-20T03:02:34.636Z,9.40
2022-10-20T03:05:01.496Z,9.50
2022-10-20T03:07:28.482Z,9.70
2022-10-20T03:09:55.418Z,9.90
2022-10-20T03:12:22.277Z,10.10
2022-10-20T03:14:49.296Z,10.00
2022-10-20T03:17:16.078Z,9.90
2022-10-20T03:19:42.919Z,9.80
2022-10-20T03:22:09.956Z,9.70
2022-10-20T03:24:36.813Z,9.60
2022-10-20T03:27:03.725Z,9.40
2022-10-20T03:29:30.590Z,9.30
2022-10-20T03:31:57.570Z,9.30
2022-10-20T03:34:24.747Z,9.20
2022-10-20T03:36:51.566Z,9.00
2022-10-20T03:39:18.472Z,9.00
2022-10-20T03:41:45.309Z,9.10
2022-10-20T03:44:12.264Z,9.10
2022-10-20T03:46:39.098Z,9.20
2022-10-20T03:49:05.984Z,9.20
2022-10-20T03:51:32.839Z,9.10
2022-10-20T03:53:59.725Z,9.10
2022-10-20T03:56:26.584Z,9.10
2022-10-20T03:58:53.456Z,9.10
2022-10-20T04:01:24.706Z,8.90
2022-10-20T04:03:51.524Z,8.90
2022-10-20T04:06:18.334Z,8.90
2022-10-20T04:08:45.229Z,8.90
2022-10-20T04:11:12.273Z,9.00
2022-10-20T04:13:39.115Z,9.00
2022-10-20T04:16:06.301Z,9.20
2022-10-20T04:18:33.161Z,9.30
2022-10-20T04:21:00.089Z,9.30
2022-10-20T04:23:26.893Z,9.40
2022-10-20T04:25:53.715Z,9.40
2022-10-20T04:28:21.191Z,9.30
2022-10-20T04:30:49.173Z,9.20
2022-10-20T04:33:16.533Z,9.10
2022-10-20T04:35:43.617Z,9.00
2022-10-20T04:38:10.704Z,9.00
2022-10-20T04:40:37.631Z,9.10
2022-10-20T04:43:04.457Z,9.20
2022-10-20T04:45:31.355Z,9.20
2022-10-20T04:47:58.172Z,9.20
2022-10-20T04:50:25.006Z,9.20
2022-10-20T04:52:51.792Z,9.10
2022-10-20T04:55:18.873Z,9.20
2022-10-20T04:57:45.721Z,9.20
2022-10-20T05:00:13.246Z,9.20
2022-10-20T05:02:40.065Z,9.00
2022-10-20T05:05:07.208Z,8.70
2022-10-20T05:07:34.494Z,8.70
2022-10-20T05:10:01.667Z,8.80
2022-10-20T05:12:28.610Z,8.70
2022-10-20T05:14:55.454Z,8.80
2022-10-20T05:17:22.415Z,8.70
2022-10-20T05:19:49.293Z,8.70
2022-10-20T05:22:16.188Z,8.70
2022-10-20T05:24:42.993Z,8.80
2022-10-20T05:27:09.808Z,8.70
2022-10-20T05:29:36.602Z,8.90
2022-10-20T05:32:03.584Z,9.10
2022-10-20T05:34:30.525Z,9.20
2022-10-20T05:36:57.531Z,9.30
2022-10-20T05:39:24.304Z,9.20
2022-10-20T05:41:51.145Z,9.30
2022-10-20T05:44:18.003Z,9.20
2022-10-20T05:46:44.877Z,9.40
2022-10-20T05:49:14.293Z,9.40
2022-10-20T05:51:41.650Z,9.50
2022-10-20T05:54:11.695Z,9.30
2022-10-20T05:56:38.647Z,9.40
2022-10-20T05:59:05.550Z,9.30
2022-10-20T06:01:47.570Z,9.30
2022-10-20T06:04:17.752Z,9.10
2022-10-20T06:06:45.357Z,9.10
2022-10-20T06:09:12.699Z,9.10
2022-10-20T06:11:39.974Z,9.30
2022-10-20T06:14:08.730Z,9.40
2022-10-20T06:16:36.033Z,9.40
2022-10-20T06:19:03.203Z,9.40
2022-10-20T06:21:32.981Z,9.30
2022-10-20T06:24:00.847Z,9.30
2022-10-20T06:26:29.952Z,9.00
2022-10-20T06:29:03.638Z,9.00
2022-10-20T06:31:33.693Z,9.20
2022-10-20T06:34:01.347Z,9.20
2022-10-20T06:36:28.536Z,9.30
2022-10-20T06:38:57.896Z,10.20
2022-10-20T06:41:26.342Z,9.20
2022-10-20T06:44:00.446Z,9.30
2022-10-20T06:46:29.969Z,9.20
2022-10-20T06:48:58.751Z,9.20
2022-10-20T06:51:26.131Z,9.10
2022-10-20T06:53:53.204Z,9.10
2022-10-20T06:56:23.651Z,9.10
2022-10-20T06:58:52.537Z,9.00
2022-10-20T07:01:25.539Z,9.10
2022-10-20T07:03:55.419Z,9.10
2022-10-20T07:06:30.952Z,8.90
2022-10-20T07:08:59.900Z,8.90
2022-10-20T07:11:31.461Z,8.90
2022-10-20T07:13:59.462Z,9.00
2022-10-20T07:16:29.542Z,9.00
2022-10-20T07:18:57.461Z,8.80
2022-10-20T07:21:34.637Z,8.90
2022-10-20T07:24:05.649Z,9.00
2022-10-20T07:26:35.089Z,8.90
2022-10-20T07:29:03.846Z,8.70
2022-10-20T07:31:38.611Z,8.80
2022-10-20T07:34:23.374Z,8.80
2022-10-20T07:36:51.527Z,8.80
2022-10-20T07:39:18.583Z,8.70
2022-10-20T07:41:47.416Z,8.60
2022-10-20T07:44:14.838Z,8.70
2022-10-20T07:46:41.800Z,8.70
2022-10-20T07:49:42.428Z,8.70
2022-10-20T07:51:55.811Z,8.70
2022-10-20T07:54:22.938Z,8.90
2022-10-20T07:56:49.769Z,9.00
2022-10-20T07:59:16.648Z,9.20
2022-10-20T08:01:44.135Z,9.20
2022-10-20T08:04:11.616Z,9.10
2022-10-20T08:06:39.409Z,9.10
2022-10-20T08:09:07.386Z,9.20
2022-10-20T08:11:35.565Z,9.30
2022-10-20T08:14:02.501Z,9.10
2022-10-20T08:16:32.528Z,9.20
2022-10-20T08:21:40.114Z,9.50
2022-10-20T08:24:06.969Z,9.60
2022-10-20T08:26:33.818Z,9.70
2022-10-20T08:29:02.666Z,9.80
2022-10-20T08:31:29.672Z,9.70
2022-10-20T08:33:57.461Z,9.80
2022-10-20T08:36:24.653Z,9.80
2022-10-20T08:38:51.568Z,10.00
2022-10-20T08:41:20.895Z,10.00
2022-10-20T08:43:50.754Z,10.10
2022-10-20T08:46:20.275Z,10.20
2022-10-20T08:48:48.870Z,10.20
2022-10-20T08:51:22.948Z,10.30
2022-10-20T08:53:52.824Z,10.20
2022-10-20T08:56:23.672Z,10.20
2022-10-20T08:58:50.899Z,10.30
2022-10-20T09:01:24.249Z,10.40
2022-10-20T09:04:19.768Z,10.30
2022-10-20T09:06:51.154Z,10.50
2022-10-20T09:09:21.137Z,10.60
2022-10-20T09:11:48.514Z,10.80
2022-10-20T09:14:16.801Z,10.80
2022-10-20T09:17:00.958Z,10.80
2022-10-20T09:19:28.842Z,11.00
2022-10-20T09:21:59.516Z,11.10
2022-10-20T09:24:30.206Z,11.00
2022-10-20T09:27:15.884Z,11.20
2022-10-20T09:29:42.736Z,11.20
2022-10-20T09:32:51.395Z,11.30
2022-10-20T09:35:20.623Z,11.30
2022-10-20T09:38:04.644Z,11.40
2022-10-20T09:40:31.771Z,11.60
2022-10-20T09:43:08.956Z,11.50
2022-10-20T09:45:39.122Z,11.70
2022-10-20T09:48:24.996Z,12.00
2022-10-20T09:50:56.342Z,12.10
2022-10-20T09:53:36.400Z,12.10
2022-10-20T09:56:03.384Z,12.20
2022-10-20T09:58:37.945Z,12.30
2022-10-20T10:01:23.653Z,12.40
2022-10-20T10:03:59.811Z,12.40
2022-10-20T10:06:38.808Z,12.40
2022-10-20T10:09:26.352Z,12.30
2022-10-20T10:12:12.927Z,12.30
2022-10-20T10:14:54.855Z,12.40
2022-10-20T10:17:32.236Z,12.30
2022-10-20T10:20:00.955Z,12.30
2022-10-20T10:22:28.428Z,12.30
2022-10-20T10:24:56.356Z,12.50
2022-10-20T10:27:31.672Z,13.00
2022-10-20T10:30:24.361Z,13.60
2022-10-20T10:32:51.188Z,14.00
2022-10-20T10:35:40.935Z,14.30
2022-10-20T10:38:11.033Z,14.70
2022-10-20T10:41:04.281Z,14.80
2022-10-20T10:43:44.910Z,14.80
2022-10-20T10:50:10.035Z,15.40
2022-10-20T10:52:57.988Z,15.60
2022-10-20T10:55:54.873Z,15.70
2022-10-20T10:58:37.451Z,15.60
2022-10-20T11:01:35.216Z,15.20
2022-10-20T11:04:13.147Z,15.10
2022-10-20T11:06:44.972Z,15.00
2022-10-20T11:09:26.734Z,15.10
2022-10-20T11:11:56.725Z,15.30
2022-10-20T11:14:49.537Z,15.50
2022-10-20T11:17:16.337Z,15.70
2022-10-20T11:20:10.706Z,15.70
2022-10-20T11:22:37.427Z,15.60
2022-10-20T11:25:24.371Z,15.20
2022-10-20T11:27:51.525Z,15.00
2022-10-20T11:30:22.058Z,14.70
2022-10-20T11:33:14.806Z,14.50
2022-10-20T11:35:58.653Z,14.30
2022-10-20T11:38:41.248Z,14.30
2022-10-20T11:41:29.928Z,14.20
2022-10-20T11:44:06.594Z,14.20
2022-10-20T11:46:42.084Z,14.10
2022-10-20T11:49:12.171Z,14.00
2022-10-20T11:51:56.115Z,14.00
2022-10-20T11:54:32.099Z,13.90
2022-10-20T11:57:16.436Z,13.80
2022-10-20T12:00:11.918Z,13.70
2022-10-20T12:03:16.698Z,13.60
2022-10-20T12:06:05.109Z,13.40
2022-10-20T12:08:40.297Z,13.40
2022-10-20T12:11:26.611Z,13.30
2022-10-20T12:14:24.599Z,13.20
2022-10-20T12:17:00.232Z,13.20
2022-10-20T12:19:33.147Z,13.10
2022-10-20T12:22:14.855Z,13.20
2022-10-20T12:25:04.683Z,13.10
2022-10-20T12:27:32.734Z,13.10
2022-10-20T12:30:04.267Z,13.10
2022-10-20T12:32:54.960Z,13.10
2022-10-20T12:35:25.053Z,13.10
2022-10-20T12:38:04.227Z,13.00
2022-10-20T12:40:31.224Z,13.00
2022-10-20T12:42:58.667Z,13.00
2022-10-20T12:45:41.898Z,13.00
2022-10-20T12:48:18.135Z,12.90
2022-10-20T12:50:47.104Z,12.90
2022-10-20T12:53:28.425Z,12.90
2022-10-20T12:56:08.818Z,12.80
2022-10-20T12:58:37.657Z,12.80
2022-10-20T13:01:08.428Z,12.80
2022-10-20T13:03:42.882Z,12.80
2022-10-20T13:06:27.813Z,12.80
2022-10-20T13:09:03.879Z,12.80
2022-10-20T13:11:33.892Z,12.80
2022-10-20T13:14:32.794Z,12.70
2022-10-20T13:17:17.869Z,12.80
2022-10-20T13:19:47.358Z,12.70
2022-10-20T13:22:37.852Z,12.60
2022-10-20T13:25:13.163Z,12.70
2022-10-20T13:27:40.213Z,12.70
2022-10-20T13:30:08.913Z,12.70
2022-10-20T13:33:02.016Z,12.80
2022-10-20T13:35:47.409Z,12.80
2022-10-20T13:38:24.825Z,12.80
2022-10-20T13:40:58.133Z,13.00
2022-10-20T13:43:57.551Z,12.90
2022-10-20T13:47:01.417Z,12.90
2022-10-20T13:49:43.275Z,12.80
2022-10-20T13:52:16.445Z,12.70
2022-10-20T13:54:48.153Z,12.70
2022-10-20T13:57:24.461Z,12.70
2022-10-20T14:00:03.786Z,12.70
2022-10-20T14:02:34.927Z,12.80
2022-10-20T14:05:12.618Z,12.80
2022-10-20T14:07:42.020Z,12.60
2022-10-20T14:10:27.207Z,12.60
2022-10-20T14:12:57.010Z,12.60
2022-10-20T14:15:33.105Z,12.50
2022-10-20T14:18:03.514Z,12.40
2022-10-20T14:20:32.803Z,12.50
2022-10-20T14:23:02.248Z,12.50
2022-10-20T14:25:31.720Z,12.50
2022-10-20T14:27:59.281Z,12.50
2022-10-20T14:30:26.674Z,12.50
2022-10-20T14:32:54.512Z,12.50
2022-10-20T14:36:02.779Z,12.60
2022-10-20T14:38:31.829Z,12.60
2022-10-20T14:40:59.613Z,12.60
2022-10-20T14:43:26.424Z,12.60
2022-10-20T14:46:04.257Z,12.60
2022-10-20T14:48:51.746Z,12.70
2022-10-20T14:51:40.357Z,12.70
2022-10-20T14:54:31.491Z,12.80
2022-10-20T14:57:19.647Z,12.90
2022-10-20T14:59:55.922Z,12.90
2022-10-20T15:02:26.061Z,13.00
2022-10-20T15:04:53.000Z,13.00
2022-10-20T15:07:32.081Z,13.00
2022-10-20T15:10:07.326Z,13.00
2022-10-20T15:12:45.997Z,13.00
2022-10-20T15:15:12.787Z,13.00
2022-10-20T15:17:44.028Z,13.00
2022-10-20T15:20:29.792Z,13.00
2022-10-20T15:22:59.169Z,12.90
2022-10-20T15:25:31.946Z,12.90
2022-10-20T15:27:59.654Z,12.90
2022-10-20T15:30:26.871Z,12.90
2022-10-20T15:32:54.968Z,12.90
2022-10-20T15:35:24.289Z,13.00
2022-10-20T15:37:53.262Z,12.90
2022-10-20T15:40:21.274Z,12.90
2022-10-20T15:42:48.963Z,13.00
2022-10-20T15:45:19.941Z,13.00
2022-10-20T15:47:46.993Z,13.10
2022-10-20T15:50:14.394Z,13.00
2022-10-20T15:52:41.966Z,13.00
2022-10-20T15:55:25.216Z,13.10
2022-10-20T15:57:53.666Z,13.20
2022-10-20T16:00:24.182Z,13.10
2022-10-20T16:02:51.439Z,13.20
2022-10-20T16:05:19.973Z,13.20
2022-10-20T16:07:47.307Z,13.10
2022-10-20T16:10:14.316Z,13.10
2022-10-20T16:12:41.491Z,13.10
2022-10-20T16:15:09.950Z,13.10
2022-10-20T16:17:37.470Z,13.10
2022-10-20T16:20:07.475Z,13.10
2022-10-20T16:22:35.674Z,13.00
2022-10-20T16:25:03.406Z,13.00
2022-10-20T16:27:32.266Z,13.00
2022-10-20T16:29:59.894Z,13.00
2022-10-20T16:32:31.321Z,13.00
2022-10-20T16:35:01.354Z,12.90
2022-10-20T16:37:28.483Z,13.00
2022-10-20T16:39:55.365Z,13.00
2022-10-20T16:42:22.228Z,12.90
2022-10-20T16:44:49.073Z,12.80
2022-10-20T16:47:15.967Z,12.80
2022-10-20T16:49:42.864Z,12.80
2022-10-20T16:52:10.510Z,12.80
2022-10-20T16:54:38.073Z,12.70
2022-10-20T16:57:07.828Z,12.70
2022-10-20T16:59:34.692Z,12.70
2022-10-20T17:02:01.489Z,12.60
2022-10-20T17:04:28.486Z,12.50
2022-10-20T17:06:55.381Z,12.50
2022-10-20T17:09:22.287Z,12.40
2022-10-20T17:11:49.106Z,12.40
2022-10-20T17:14:15.976Z,12.40
2022-10-20T17:16:42.923Z,12.40
2022-10-20T17:19:09.869Z,12.40
2022-10-20T17:21:36.777Z,12.40
2022-10-20T17:24:04.353Z,12.40
2022-10-20T17:26:31.539Z,12.40
2022-10-20T17:29:00.419Z,12.30
2022-10-20T17:31:28.262Z,12.30
2022-10-20T17:33:56.993Z,12.30
2022-10-20T17:36:26.318Z,12.20
2022-10-20T17:38:57.826Z,12.20
2022-10-20T17:41:25.118Z,12.20
2022-10-20T17:43:52.059Z,12.10
2022-10-20T17:46:19.950Z,12.10
2022-10-20T17:48:47.348Z,12.10
2022-10-20T17:51:19.456Z,12.10
2022-10-20T17:53:49.034Z,12.00
2022-10-20T17:56:27.176Z,12.10
2022-10-20T17:58:55.781Z,12.10
2022-10-20T18:01:33.883Z,12.00
2022-10-20T18:04:10.897Z,12.00
2022-10-20T18:06:38.244Z,12.00
2022-10-20T18:09:07.763Z,12.00
2022-10-20T18:11:35.436Z,12.00
2022-10-20T18:14:03.494Z,11.90
2022-10-20T18:16:33.610Z,11.90
2022-10-20T18:19:00.935Z,11.90
2022-10-20T18:21:29.254Z,11.90
2022-10-20T18:23:58.106Z,11.90
2022-10-20T18:26:25.234Z,11.80
2022-10-20T18:28:52.577Z,11.80
2022-10-20T18:31:24.933Z,11.80
2022-10-20T18:33:58.767Z,11.90
2022-10-20T18:36:28.733Z,11.80
2022-10-20T18:38:56.384Z,11.80
2022-10-20T18:41:24.747Z,11.70
2022-10-20T18:43:58.146Z,11.80
2022-10-20T18:46:27.141Z,11.80
2022-10-20T18:55:21.304Z,11.80
2022-10-20T18:57:48.139Z,11.80
2022-10-20T19:00:15.029Z,11.80
2022-10-20T19:02:41.842Z,11.80
2022-10-20T19:05:08.975Z,11.80
2022-10-20T19:07:36.210Z,11.80
2022-10-20T19:10:04.162Z,11.80
2022-10-20T19:12:31.044Z,11.80
2022-10-20T19:15:00.423Z,11.80
2022-10-20T19:17:27.250Z,11.80
2022-10-20T19:19:54.665Z,11.80
2022-10-20T19:22:25.592Z,11.70
2022-10-20T19:24:55.311Z,11.80
2022-10-20T19:27:26.550Z,11.80
2022-10-20T19:29:55.851Z,11.70
2022-10-20T19:32:26.036Z,11.70
2022-10-20T19:34:52.906Z,11.70
2022-10-20T19:37:19.775Z,11.70
2022-10-20T19:39:46.580Z,11.70
2022-10-20T19:42:13.849Z,11.70
2022-10-20T19:44:41.222Z,11.70
2022-10-20T19:47:08.517Z,11.80
2022-10-20T19:49:35.874Z,11.80
2022-10-20T19:52:03.430Z,11.80
2022-10-20T19:54:30.305Z,11.80
2022-10-20T19:56:57.581Z,11.80
2022-10-20T19:59:24.662Z,11.80
2022-10-20T20:01:52.607Z,11.80
2022-10-20T20:04:21.078Z,11.80
2022-10-20T20:06:48.008Z,11.80
2022-10-20T20:09:15.778Z,11.80
2022-10-20T20:11:43.186Z,11.90
2022-10-20T20:14:16.689Z,11.90
2022-10-20T20:16:46.075Z,11.90
2022-10-20T20:19:14.688Z,11.80
2022-10-20T20:21:41.556Z,11.80
2022-10-20T20:24:11.055Z,11.80
2022-10-20T20:26:37.787Z,11.70
2022-10-20T20:29:05.418Z,11.80
2022-10-20T20:31:33.352Z,11.70
2022-10-20T20:34:00.335Z,11.70
2022-10-20T20:36:28.086Z,11.60
2022-10-20T20:38:58.130Z,11.60
2022-10-20T20:41:30.386Z,11.50
2022-10-20T20:43:57.565Z,11.40
2022-10-20T20:46:31.135Z,11.40
2022-10-20T20:48:58.338Z,11.30
2022-10-20T20:51:26.100Z,11.30
2022-10-20T20:53:52.904Z,11.30
2022-10-20T20:56:21.917Z,11.30
2022-10-20T20:58:55.000Z,11.30
2022-10-20T21:01:27.555Z,11.30
2022-10-20T21:04:00.305Z,11.30
2022-10-20T21:06:33.731Z,11.40
2022-10-20T21:09:11.939Z,11.40
2022-10-20T21:11:38.831Z,11.40
2022-10-20T21:14:05.703Z,11.50
2022-10-20T21:16:34.726Z,11.50
2022-10-20T21:19:04.902Z,11.50
2022-10-20T21:21:43.532Z,11.60
2022-10-20T21:24:12.424Z,11.60
2022-10-20T21:26:39.565Z,11.70
2022-10-20T21:29:06.515Z,11.70
2022-10-20T21:31:33.339Z,11.80
2022-10-20T21:34:02.700Z,11.80
2022-10-20T21:36:32.357Z,11.80
2022-10-20T21:38:59.761Z,11.80
2022-10-20T21:41:31.480Z,11.80
2022-10-20T21:43:59.990Z,11.80
2022-10-20T21:46:42.080Z,11.90
2022-10-20T21:49:14.306Z,11.90
2022-10-20T21:51:44.092Z,11.90
2022-10-20T21:54:14.303Z,11.90
2022-10-20T21:56:44.210Z,11.90
2022-10-20T21:59:29.028Z,11.90
2022-10-20T22:02:01.267Z,11.90
2022-10-20T22:04:29.815Z,11.90
2022-10-20T22:06:56.818Z,11.80
2022-10-20T22:09:23.742Z,11.80
2022-10-20T22:11:55.456Z,11.80
2022-10-20T22:14:23.196Z,11.80
2022-10-20T22:16:50.208Z,11.70
2022-10-20T22:19:20.425Z,11.70
2022-10-20T22:21:48.977Z,11.70
2022-10-20T22:24:17.545Z,11.60
2022-10-20T22:26:45.018Z,11.60
2022-10-20T22:29:12.010Z,11.60
2022-10-20T22:31:40.096Z,11.50
2022-10-20T22:34:07.415Z,11.60
2022-10-20T22:36:34.397Z,11.60
2022-10-20T22:39:01.285Z,11.60
2022-10-20T22:41:28.237Z,11.50
2022-10-20T22:43:55.083Z,11.60
2022-10-20T22:46:21.928Z,11.50
2022-10-20T22:48:48.982Z,11.50
2022-10-20T22:51:16.439Z,11.50
2022-10-20T22:53:44.683Z,11.50
2022-10-20T22:56:17.639Z,11.40
2022-10-20T22:58:44.947Z,11.30
2022-10-20T23:01:17.961Z,11.40
2022-10-20T23:03:45.344Z,11.30
2022-10-20T23:06:15.500Z,11.30
2022-10-20T23:08:44.618Z,11.30
2022-10-20T23:11:11.824Z,11.30
2022-10-20T23:13:38.781Z,11.30
2022-10-20T23:16:06.040Z,11.30
2022-10-20T23:18:33.352Z,11.30
2022-10-20T23:21:00.192Z,11.20
2022-10-20T23:23:27.012Z,11.20
2022-10-20T23:25:58.517Z,11.20
2022-10-20T23:28:27.691Z,11.20
2022-10-20T23:31:05.820Z,11.20
2022-10-20T23:33:32.960Z,11.30
2022-10-20T23:35:59.795Z,11.20
2022-10-20T23:38:26.602Z,11.30
2022-10-20T23:40:53.411Z,11.30
2022-10-20T23:43:20.239Z,11.30
2022-10-20T23:45:47.084Z,11.40
2022-10-20T23:48:13.922Z,11.30
2022-10-20T23:50:41.345Z,11.30
2022-10-20T23:53:08.211Z,11.30
2022-10-20T23:55:35.137Z,11.30
2022-10-20T23:58:02.263Z,11.30
